sensor_id;sensor_type;location;lat;lon;timestamp;temperature;humidity
5560;DHT22;2803;47.916;8.074;2023-12-14T00:00:24;8.70;99.90
5560;DHT22;2803;47.916;8.074;2023-12-14T00:02:51;8.70;99.90
5560;DHT22;2803;47.916;8.074;2023-12-14T00:05:18;8.70;99.90
5560;DHT22;2803;47.916;8.074;2023-12-14T00:07:46;8.70;99.90
5560;DHT22;2803;47.916;8.074;2023-12-14T00:10:12;8.90;99.90
5560;DHT22;2803;47.916;8.074;2023-12-14T00:12:39;9.00;99.90
5560;DHT22;2803;47.916;8.074;2023-12-14T00:15:06;9.00;99.90
5560;DHT22;2803;47.916;8.074;2023-12-14T00:17:33;9.00;99.90
5560;DHT22;2803;47.916;8.074;2023-12-14T00:19:59;9.00;99.90
5560;DHT22;2803;47.916;8.074;2023-12-14T00:22:26;9.00;99.90
5560;DHT22;2803;47.916;8.074;2023-12-14T00:24:54;9.20;99.90
5560;DHT22;2803;47.916;8.074;2023-12-14T00:27:20;9.00;99.90
5560;DHT22;2803;47.916;8.074;2023-12-14T00:29:47;9.00;99.90
5560;DHT22;2803;47.916;8.074;2023-12-14T00:32:13;9.10;99.90
5560;DHT22;2803;47.916;8.074;2023-12-14T00:34:40;9.20;99.90
5560;DHT22;2803;47.916;8.074;2023-12-14T00:37:07;9.20;99.90
5560;DHT22;2803;47.916;8.074;2023-12-14T00:39:33;9.20;99.90
5560;DHT22;2803;47.916;8.074;2023-12-14T00:42:01;9.10;99.90
5560;DHT22;2803;47.916;8.074;2023-12-14T00:44:28;9.20;99.90
5560;DHT22;2803;47.916;8.074;2023-12-14T00:46:54;9.20;99.90
5560;DHT22;2803;47.916;8.074;2023-12-14T00:49:22;9.10;99.90
5560;DHT22;2803;47.916;8.074;2023-12-14T00:51:48;9.00;99.90
5560;DHT22;2803;47.916;8.074;2023-12-14T00:54:15;9.00;99.90
5560;DHT22;2803;47.916;8.074;2023-12-14T00:56:42;8.90;99.90
5560;DHT22;2803;47.916;8.074;2023-12-14T00:59:09;9.00;99.90
5560;DHT22;2803;47.916;8.074;2023-12-14T01:01:36;9.10;99.90
5560;DHT22;2803;47.916;8.074;2023-12-14T01:04:03;9.20;99.90
5560;DHT22;2803;47.916;8.074;2023-12-14T01:06:32;9.20;99.90
5560;DHT22;2803;47.916;8.074;2023-12-14T01:08:59;9.10;99.90
5560;DHT22;2803;47.916;8.074;2023-12-14T01:11:26;9.20;99.90
5560;DHT22;2803;47.916;8.074;2023-12-14T01:13:52;9.30;99.90
5560;DHT22;2803;47.916;8.074;2023-12-14T01:16:20;9.20;99.90
5560;DHT22;2803;47.916;8.074;2023-12-14T01:18:47;9.20;99.90
5560;DHT22;2803;47.916;8.074;2023-12-14T01:21:13;9.20;99.90
5560;DHT22;2803;47.916;8.074;2023-12-14T01:23:40;9.20;99.90
5560;DHT22;2803;47.916;8.074;2023-12-14T01:26:07;9.20;99.90
5560;DHT22;2803;47.916;8.074;2023-12-14T01:28:33;9.20;99.90
5560;DHT22;2803;47.916;8.074;2023-12-14T01:31:00;9.20;99.90
5560;DHT22;2803;47.916;8.074;2023-12-14T01:33:28;9.40;99.90
5560;DHT22;2803;47.916;8.074;2023-12-14T01:35:54;9.20;99.90
5560;DHT22;2803;47.916;8.074;2023-12-14T01:38:21;9.10;99.90
5560;DHT22;2803;47.916;8.074;2023-12-14T01:40:48;9.30;99.90
5560;DHT22;2803;47.916;8.074;2023-12-14T01:43:14;9.00;99.90
5560;DHT22;2803;47.916;8.074;2023-12-14T01:45:41;9.10;99.90
5560;DHT22;2803;47.916;8.074;2023-12-14T01:48:07;9.10;99.90
5560;DHT22;2803;47.916;8.074;2023-12-14T01:50:36;9.10;99.90
5560;DHT22;2803;47.916;8.074;2023-12-14T01:53:02;9.00;99.90
5560;DHT22;2803;47.916;8.074;2023-12-14T01:55:29;8.80;99.90
5560;DHT22;2803;47.916;8.074;2023-12-14T01:57:56;9.00;99.90
5560;DHT22;2803;47.916;8.074;2023-12-14T02:00:29;9.00;99.90
5560;DHT22;2803;47.916;8.074;2023-12-14T02:02:58;9.10;99.90
5560;DHT22;2803;47.916;8.074;2023-12-14T02:05:24;9.10;99.90
5560;DHT22;2803;47.916;8.074;2023-12-14T02:07:52;9.20;99.90
5560;DHT22;2803;47.916;8.074;2023-12-14T02:10:19;9.00;99.90
5560;DHT22;2803;47.916;8.074;2023-12-14T02:12:46;9.00;99.90
5560;DHT22;2803;47.916;8.074;2023-12-14T02:15:12;9.00;99.90
5560;DHT22;2803;47.916;8.074;2023-12-14T02:17:39;9.00;99.90
5560;DHT22;2803;47.916;8.074;2023-12-14T02:20:06;9.10;99.90
5560;DHT22;2803;47.916;8.074;2023-12-14T02:22:47;9.10;99.90
5560;DHT22;2803;47.916;8.074;2023-12-14T02:25:15;9.10;99.90
5560;DHT22;2803;47.916;8.074;2023-12-14T02:27:42;9.00;99.90
5560;DHT22;2803;47.916;8.074;2023-12-14T02:30:09;8.90;99.90
5560;DHT22;2803;47.916;8.074;2023-12-14T02:32:36;8.90;99.90
5560;DHT22;2803;47.916;8.074;2023-12-14T02:35:03;9.00;99.90
5560;DHT22;2803;47.916;8.074;2023-12-14T02:37:30;9.10;99.90
5560;DHT22;2803;47.916;8.074;2023-12-14T02:39:58;9.00;99.90
5560;DHT22;2803;47.916;8.074;2023-12-14T02:42:25;9.10;99.90
5560;DHT22;2803;47.916;8.074;2023-12-14T02:44:53;9.20;99.90
5560;DHT22;2803;47.916;8.074;2023-12-14T02:47:19;9.40;99.90
5560;DHT22;2803;47.916;8.074;2023-12-14T02:49:46;9.40;99.90
5560;DHT22;2803;47.916;8.074;2023-12-14T02:52:13;9.30;99.90
5560;DHT22;2803;47.916;8.074;2023-12-14T02:54:40;9.30;99.90
5560;DHT22;2803;47.916;8.074;2023-12-14T02:57:07;9.20;99.90
5560;DHT22;2803;47.916;8.074;2023-12-14T02:59:34;9.20;99.90
5560;DHT22;2803;47.916;8.074;2023-12-14T03:02:01;9.30;99.90
5560;DHT22;2803;47.916;8.074;2023-12-14T03:04:27;9.40;99.90
5560;DHT22;2803;47.916;8.074;2023-12-14T03:06:54;9.50;99.90
5560;DHT22;2803;47.916;8.074;2023-12-14T03:09:21;9.50;99.90
5560;DHT22;2803;47.916;8.074;2023-12-14T03:11:48;9.60;99.90
5560;DHT22;2803;47.916;8.074;2023-12-14T03:14:16;9.50;99.90
5560;DHT22;2803;47.916;8.074;2023-12-14T03:16:43;9.50;99.90
5560;DHT22;2803;47.916;8.074;2023-12-14T03:19:09;9.30;99.90
5560;DHT22;2803;47.916;8.074;2023-12-14T03:21:36;9.50;99.90
5560;DHT22;2803;47.916;8.074;2023-12-14T03:24:03;9.40;99.90
5560;DHT22;2803;47.916;8.074;2023-12-14T03:26:30;9.40;99.90
5560;DHT22;2803;47.916;8.074;2023-12-14T03:28:56;9.40;99.90
5560;DHT22;2803;47.916;8.074;2023-12-14T03:31:24;9.40;99.90
5560;DHT22;2803;47.916;8.074;2023-12-14T03:33:51;9.50;99.90
5560;DHT22;2803;47.916;8.074;2023-12-14T03:36:17;9.40;99.90
5560;DHT22;2803;47.916;8.074;2023-12-14T03:38:44;9.30;99.90
5560;DHT22;2803;47.916;8.074;2023-12-14T03:41:10;8.70;99.90
5560;DHT22;2803;47.916;8.074;2023-12-14T03:43:37;8.50;99.90
5560;DHT22;2803;47.916;8.074;2023-12-14T03:46:04;8.00;99.90
5560;DHT22;2803;47.916;8.074;2023-12-14T03:48:32;8.20;99.90
5560;DHT22;2803;47.916;8.074;2023-12-14T03:51:02;8.70;99.90
5560;DHT22;2803;47.916;8.074;2023-12-14T03:53:29;8.60;99.90
5560;DHT22;2803;47.916;8.074;2023-12-14T03:55:57;8.70;99.90
5560;DHT22;2803;47.916;8.074;2023-12-14T03:58:24;8.90;99.90
5560;DHT22;2803;47.916;8.074;2023-12-14T04:00:50;9.00;99.90
5560;DHT22;2803;47.916;8.074;2023-12-14T04:03:17;9.20;99.90
5560;DHT22;2803;47.916;8.074;2023-12-14T04:05:45;9.20;99.90
5560;DHT22;2803;47.916;8.074;2023-12-14T04:08:12;9.30;99.90
5560;DHT22;2803;47.916;8.074;2023-12-14T04:10:38;9.20;99.90
5560;DHT22;2803;47.916;8.074;2023-12-14T04:13:05;9.20;99.90
5560;DHT22;2803;47.916;8.074;2023-12-14T04:15:31;9.40;99.90
5560;DHT22;2803;47.916;8.074;2023-12-14T04:17:58;9.50;99.90
5560;DHT22;2803;47.916;8.074;2023-12-14T04:20:24;9.70;99.90
5560;DHT22;2803;47.916;8.074;2023-12-14T04:22:52;9.70;99.90
5560;DHT22;2803;47.916;8.074;2023-12-14T04:25:19;9.60;99.90
5560;DHT22;2803;47.916;8.074;2023-12-14T04:27:46;9.60;99.90
5560;DHT22;2803;47.916;8.074;2023-12-14T04:30:12;9.70;99.90
5560;DHT22;2803;47.916;8.074;2023-12-14T04:32:39;9.70;99.90
5560;DHT22;2803;47.916;8.074;2023-12-14T04:35:06;9.70;99.90
5560;DHT22;2803;47.916;8.074;2023-12-14T04:37:33;9.70;99.90
5560;DHT22;2803;47.916;8.074;2023-12-14T04:40:02;9.60;99.90
5560;DHT22;2803;47.916;8.074;2023-12-14T04:42:29;9.10;99.90
5560;DHT22;2803;47.916;8.074;2023-12-14T04:44:56;9.10;99.90
5560;DHT22;2803;47.916;8.074;2023-12-14T04:47:22;9.20;99.90
5560;DHT22;2803;47.916;8.074;2023-12-14T04:49:49;9.50;99.90
5560;DHT22;2803;47.916;8.074;2023-12-14T04:52:16;9.60;99.90
5560;DHT22;2803;47.916;8.074;2023-12-14T04:54:42;9.40;99.90
5560;DHT22;2803;47.916;8.074;2023-12-14T04:57:10;9.60;99.90
5560;DHT22;2803;47.916;8.074;2023-12-14T04:59:37;9.70;99.90
5560;DHT22;2803;47.916;8.074;2023-12-14T05:02:03;9.80;99.90
5560;DHT22;2803;47.916;8.074;2023-12-14T05:04:30;9.90;99.90
5560;DHT22;2803;47.916;8.074;2023-12-14T05:06:57;10.00;99.90
5560;DHT22;2803;47.916;8.074;2023-12-14T05:09:23;9.90;99.90
5560;DHT22;2803;47.916;8.074;2023-12-14T05:11:50;9.80;99.90
5560;DHT22;2803;47.916;8.074;2023-12-14T05:14:18;9.80;99.90
5560;DHT22;2803;47.916;8.074;2023-12-14T05:16:45;9.90;99.90
5560;DHT22;2803;47.916;8.074;2023-12-14T05:19:11;9.80;99.90
5560;DHT22;2803;47.916;8.074;2023-12-14T05:21:38;9.60;99.90
5560;DHT22;2803;47.916;8.074;2023-12-14T05:24:05;9.60;99.90
5560;DHT22;2803;47.916;8.074;2023-12-14T05:26:32;9.70;99.90
5560;DHT22;2803;47.916;8.074;2023-12-14T05:28:59;9.70;99.90
5560;DHT22;2803;47.916;8.074;2023-12-14T05:31:27;9.70;99.90
5560;DHT22;2803;47.916;8.074;2023-12-14T05:33:53;9.80;99.90
5560;DHT22;2803;47.916;8.074;2023-12-14T05:36:20;9.80;99.90
5560;DHT22;2803;47.916;8.074;2023-12-14T05:38:46;9.90;99.90
5560;DHT22;2803;47.916;8.074;2023-12-14T05:41:13;9.80;99.90
5560;DHT22;2803;47.916;8.074;2023-12-14T05:43:39;9.80;99.90
5560;DHT22;2803;47.916;8.074;2023-12-14T05:46:06;9.90;99.90
5560;DHT22;2803;47.916;8.074;2023-12-14T05:48:34;9.90;99.90
5560;DHT22;2803;47.916;8.074;2023-12-14T05:51:01;9.80;99.90
5560;DHT22;2803;47.916;8.074;2023-12-14T05:53:28;9.90;99.90
5560;DHT22;2803;47.916;8.074;2023-12-14T05:55:55;10.00;99.90
5560;DHT22;2803;47.916;8.074;2023-12-14T05:58:21;10.00;99.90
5560;DHT22;2803;47.916;8.074;2023-12-14T06:00:48;10.10;99.90
5560;DHT22;2803;47.916;8.074;2023-12-14T06:03:14;10.10;99.90
5560;DHT22;2803;47.916;8.074;2023-12-14T06:05:42;9.80;99.90
5560;DHT22;2803;47.916;8.074;2023-12-14T06:08:09;9.80;99.90
5560;DHT22;2803;47.916;8.074;2023-12-14T06:10:36;9.80;99.90
5560;DHT22;2803;47.916;8.074;2023-12-14T06:13:02;9.80;99.90
5560;DHT22;2803;47.916;8.074;2023-12-14T06:15:29;9.90;99.90
5560;DHT22;2803;47.916;8.074;2023-12-14T06:17:56;10.00;99.90
5560;DHT22;2803;47.916;8.074;2023-12-14T06:20:22;10.00;99.90
5560;DHT22;2803;47.916;8.074;2023-12-14T06:22:50;9.90;99.90
5560;DHT22;2803;47.916;8.074;2023-12-14T06:25:17;10.00;99.90
5560;DHT22;2803;47.916;8.074;2023-12-14T06:27:43;10.10;99.90
5560;DHT22;2803;47.916;8.074;2023-12-14T06:30:10;10.00;99.90
5560;DHT22;2803;47.916;8.074;2023-12-14T06:32:37;9.90;99.90
5560;DHT22;2803;47.916;8.074;2023-12-14T06:35:04;9.90;99.90
5560;DHT22;2803;47.916;8.074;2023-12-14T06:37:31;9.90;99.90
5560;DHT22;2803;47.916;8.074;2023-12-14T06:39:59;9.90;99.90
5560;DHT22;2803;47.916;8.074;2023-12-14T06:42:27;9.90;99.90
5560;DHT22;2803;47.916;8.074;2023-12-14T06:44:54;9.80;99.90
5560;DHT22;2803;47.916;8.074;2023-12-14T06:47:20;9.90;99.90
5560;DHT22;2803;47.916;8.074;2023-12-14T06:49:47;9.90;99.90
5560;DHT22;2803;47.916;8.074;2023-12-14T06:52:15;9.90;99.90
5560;DHT22;2803;47.916;8.074;2023-12-14T06:54:42;9.90;99.90
5560;DHT22;2803;47.916;8.074;2023-12-14T06:57:09;9.90;99.90
5560;DHT22;2803;47.916;8.074;2023-12-14T06:59:36;10.10;99.90
5560;DHT22;2803;47.916;8.074;2023-12-14T07:02:03;10.00;99.90
5560;DHT22;2803;47.916;8.074;2023-12-14T07:04:29;9.90;99.90
5560;DHT22;2803;47.916;8.074;2023-12-14T07:06:56;9.80;99.90
5560;DHT22;2803;47.916;8.074;2023-12-14T07:09:23;9.70;99.90
5560;DHT22;2803;47.916;8.074;2023-12-14T07:11:51;9.60;99.90
5560;DHT22;2803;47.916;8.074;2023-12-14T07:14:19;9.30;99.90
5560;DHT22;2803;47.916;8.074;2023-12-14T07:16:45;9.00;99.90
5560;DHT22;2803;47.916;8.074;2023-12-14T07:19:12;8.90;99.90
5560;DHT22;2803;47.916;8.074;2023-12-14T07:21:38;9.20;99.90
5560;DHT22;2803;47.916;8.074;2023-12-14T07:24:05;9.40;99.90
5560;DHT22;2803;47.916;8.074;2023-12-14T07:26:32;9.40;99.90
5560;DHT22;2803;47.916;8.074;2023-12-14T07:28:59;9.50;99.90
5560;DHT22;2803;47.916;8.074;2023-12-14T07:31:27;9.60;99.90
5560;DHT22;2803;47.916;8.074;2023-12-14T07:33:54;9.70;99.90
5560;DHT22;2803;47.916;8.074;2023-12-14T07:36:21;9.80;99.90
5560;DHT22;2803;47.916;8.074;2023-12-14T07:38:48;9.80;99.90
5560;DHT22;2803;47.916;8.074;2023-12-14T07:41:15;9.80;99.90
5560;DHT22;2803;47.916;8.074;2023-12-14T07:43:41;9.80;99.90
5560;DHT22;2803;47.916;8.074;2023-12-14T07:46:08;9.90;99.90
5560;DHT22;2803;47.916;8.074;2023-12-14T07:48:36;9.90;99.90
5560;DHT22;2803;47.916;8.074;2023-12-14T07:51:03;9.80;99.90
5560;DHT22;2803;47.916;8.074;2023-12-14T07:53:29;9.90;99.90
5560;DHT22;2803;47.916;8.074;2023-12-14T07:55:56;9.70;99.90
5560;DHT22;2803;47.916;8.074;2023-12-14T07:58:23;9.70;99.90
5560;DHT22;2803;47.916;8.074;2023-12-14T08:00:51;9.60;99.90
5560;DHT22;2803;47.916;8.074;2023-12-14T08:03:18;9.60;99.90
5560;DHT22;2803;47.916;8.074;2023-12-14T08:05:46;9.60;99.90
5560;DHT22;2803;47.916;8.074;2023-12-14T08:08:13;9.70;99.90
5560;DHT22;2803;47.916;8.074;2023-12-14T08:10:40;9.80;99.90
5560;DHT22;2803;47.916;8.074;2023-12-14T08:13:06;9.70;99.90
5560;DHT22;2803;47.916;8.074;2023-12-14T08:15:33;9.70;99.90
5560;DHT22;2803;47.916;8.074;2023-12-14T08:18:00;9.70;99.90
5560;DHT22;2803;47.916;8.074;2023-12-14T08:20:26;9.70;99.90
5560;DHT22;2803;47.916;8.074;2023-12-14T08:22:54;9.70;99.90
5560;DHT22;2803;47.916;8.074;2023-12-14T08:25:21;9.70;99.90
5560;DHT22;2803;47.916;8.074;2023-12-14T08:27:48;9.70;99.90
5560;DHT22;2803;47.916;8.074;2023-12-14T08:30:14;9.90;99.90
5560;DHT22;2803;47.916;8.074;2023-12-14T08:32:40;9.90;99.90
5560;DHT22;2803;47.916;8.074;2023-12-14T08:35:07;10.00;99.90
5560;DHT22;2803;47.916;8.074;2023-12-14T08:37:35;9.90;99.90
5560;DHT22;2803;47.916;8.074;2023-12-14T08:40:04;10.00;99.90
5560;DHT22;2803;47.916;8.074;2023-12-14T08:42:31;9.70;99.90
5560;DHT22;2803;47.916;8.074;2023-12-14T08:44:58;9.70;99.90
5560;DHT22;2803;47.916;8.074;2023-12-14T08:47:25;9.70;99.90
5560;DHT22;2803;47.916;8.074;2023-12-14T08:49:51;9.80;99.90
5560;DHT22;2803;47.916;8.074;2023-12-14T08:52:19;9.90;99.90
5560;DHT22;2803;47.916;8.074;2023-12-14T08:54:45;10.00;99.90
5560;DHT22;2803;47.916;8.074;2023-12-14T08:57:13;9.90;99.90
5560;DHT22;2803;47.916;8.074;2023-12-14T08:59:40;9.90;99.90
5560;DHT22;2803;47.916;8.074;2023-12-14T09:02:07;9.80;99.90
5560;DHT22;2803;47.916;8.074;2023-12-14T09:04:33;9.70;99.90
5560;DHT22;2803;47.916;8.074;2023-12-14T09:07:01;9.70;99.90
5560;DHT22;2803;47.916;8.074;2023-12-14T09:09:29;9.60;99.90
5560;DHT22;2803;47.916;8.074;2023-12-14T09:11:56;9.60;99.90
5560;DHT22;2803;47.916;8.074;2023-12-14T09:14:23;9.50;99.90
5560;DHT22;2803;47.916;8.074;2023-12-14T09:16:50;9.10;99.90
5560;DHT22;2803;47.916;8.074;2023-12-14T09:19:17;9.50;99.90
5560;DHT22;2803;47.916;8.074;2023-12-14T09:21:44;9.60;99.90
5560;DHT22;2803;47.916;8.074;2023-12-14T09:24:10;9.80;99.90
5560;DHT22;2803;47.916;8.074;2023-12-14T09:26:37;9.50;99.90
5560;DHT22;2803;47.916;8.074;2023-12-14T09:29:03;9.80;99.90
5560;DHT22;2803;47.916;8.074;2023-12-14T09:31:31;9.70;99.90
5560;DHT22;2803;47.916;8.074;2023-12-14T09:33:58;9.60;99.90
5560;DHT22;2803;47.916;8.074;2023-12-14T09:36:24;9.70;99.90
5560;DHT22;2803;47.916;8.074;2023-12-14T09:38:51;9.70;99.90
5560;DHT22;2803;47.916;8.074;2023-12-14T09:41:18;9.50;99.90
5560;DHT22;2803;47.916;8.074;2023-12-14T09:43:45;9.30;99.90
5560;DHT22;2803;47.916;8.074;2023-12-14T09:46:12;9.20;99.90
5560;DHT22;2803;47.916;8.074;2023-12-14T09:48:41;9.20;99.90
5560;DHT22;2803;47.916;8.074;2023-12-14T09:51:08;9.40;99.90
5560;DHT22;2803;47.916;8.074;2023-12-14T09:53:34;9.20;99.90
5560;DHT22;2803;47.916;8.074;2023-12-14T09:56:01;8.80;99.90
5560;DHT22;2803;47.916;8.074;2023-12-14T09:58:31;9.30;99.90
5560;DHT22;2803;47.916;8.074;2023-12-14T10:00:58;9.70;99.90
5560;DHT22;2803;47.916;8.074;2023-12-14T10:03:27;9.60;99.90
5560;DHT22;2803;47.916;8.074;2023-12-14T10:05:56;9.10;99.90
5560;DHT22;2803;47.916;8.074;2023-12-14T10:08:24;8.60;99.90
5560;DHT22;2803;47.916;8.074;2023-12-14T10:10:52;8.60;99.90
5560;DHT22;2803;47.916;8.074;2023-12-14T10:13:21;8.80;99.90
5560;DHT22;2803;47.916;8.074;2023-12-14T10:15:48;9.20;99.90
5560;DHT22;2803;47.916;8.074;2023-12-14T10:18:22;9.40;99.90
5560;DHT22;2803;47.916;8.074;2023-12-14T10:20:49;9.00;99.90
5560;DHT22;2803;47.916;8.074;2023-12-14T10:23:18;9.10;99.90
5560;DHT22;2803;47.916;8.074;2023-12-14T10:25:45;9.30;99.90
5560;DHT22;2803;47.916;8.074;2023-12-14T10:28:12;9.40;99.90
5560;DHT22;2803;47.916;8.074;2023-12-14T10:30:39;9.30;99.90
5560;DHT22;2803;47.916;8.074;2023-12-14T10:33:06;9.20;99.90
5560;DHT22;2803;47.916;8.074;2023-12-14T10:35:33;9.50;99.90
5560;DHT22;2803;47.916;8.074;2023-12-14T10:38:03;9.20;99.90
5560;DHT22;2803;47.916;8.074;2023-12-14T10:40:32;8.70;99.90
5560;DHT22;2803;47.916;8.074;2023-12-14T10:42:59;9.10;99.90
5560;DHT22;2803;47.916;8.074;2023-12-14T10:45:29;9.50;99.90
5560;DHT22;2803;47.916;8.074;2023-12-14T10:47:58;9.50;99.90
5560;DHT22;2803;47.916;8.074;2023-12-14T10:50:25;9.20;99.90
5560;DHT22;2803;47.916;8.074;2023-12-14T10:52:52;9.10;99.90
5560;DHT22;2803;47.916;8.074;2023-12-14T10:55:23;8.80;99.90
5560;DHT22;2803;47.916;8.074;2023-12-14T10:57:53;8.90;99.90
5560;DHT22;2803;47.916;8.074;2023-12-14T11:00:19;9.40;99.90
5560;DHT22;2803;47.916;8.074;2023-12-14T11:02:46;9.70;99.90
5560;DHT22;2803;47.916;8.074;2023-12-14T11:05:14;9.90;99.90
5560;DHT22;2803;47.916;8.074;2023-12-14T11:07:47;9.90;99.90
5560;DHT22;2803;47.916;8.074;2023-12-14T11:10:15;9.70;99.90
5560;DHT22;2803;47.916;8.074;2023-12-14T11:12:52;9.40;99.90
5560;DHT22;2803;47.916;8.074;2023-12-14T11:15:21;9.10;99.90
5560;DHT22;2803;47.916;8.074;2023-12-14T11:20:48;8.80;99.90
5560;DHT22;2803;47.916;8.074;2023-12-14T11:23:16;8.60;99.90
5560;DHT22;2803;47.916;8.074;2023-12-14T11:25:47;8.70;99.90
5560;DHT22;2803;47.916;8.074;2023-12-14T11:28:16;9.00;99.90
5560;DHT22;2803;47.916;8.074;2023-12-14T11:30:44;8.90;99.90
5560;DHT22;2803;47.916;8.074;2023-12-14T11:33:11;8.80;99.90
5560;DHT22;2803;47.916;8.074;2023-12-14T11:35:38;8.70;99.90
5560;DHT22;2803;47.916;8.074;2023-12-14T11:38:04;8.80;99.90
5560;DHT22;2803;47.916;8.074;2023-12-14T11:40:35;9.30;99.90
5560;DHT22;2803;47.916;8.074;2023-12-14T11:43:03;9.30;99.90
5560;DHT22;2803;47.916;8.074;2023-12-14T11:45:34;9.50;99.90
5560;DHT22;2803;47.916;8.074;2023-12-14T11:48:01;9.50;99.90
5560;DHT22;2803;47.916;8.074;2023-12-14T11:50:30;9.60;99.90
5560;DHT22;2803;47.916;8.074;2023-12-14T11:52:57;9.70;99.90
5560;DHT22;2803;47.916;8.074;2023-12-14T11:55:23;9.40;99.90
5560;DHT22;2803;47.916;8.074;2023-12-14T11:57:50;9.50;99.90
5560;DHT22;2803;47.916;8.074;2023-12-14T12:00:17;9.70;99.90
5560;DHT22;2803;47.916;8.074;2023-12-14T12:02:45;9.60;99.90
5560;DHT22;2803;47.916;8.074;2023-12-14T12:05:12;8.80;99.90
5560;DHT22;2803;47.916;8.074;2023-12-14T12:07:44;8.70;99.90
5560;DHT22;2803;47.916;8.074;2023-12-14T12:10:10;9.00;99.90
5560;DHT22;2803;47.916;8.074;2023-12-14T12:12:37;8.70;99.90
5560;DHT22;2803;47.916;8.074;2023-12-14T12:15:05;8.20;99.90
5560;DHT22;2803;47.916;8.074;2023-12-14T12:17:32;8.50;99.90
5560;DHT22;2803;47.916;8.074;2023-12-14T12:20:04;8.60;99.90
5560;DHT22;2803;47.916;8.074;2023-12-14T12:22:31;8.60;99.90
5560;DHT22;2803;47.916;8.074;2023-12-14T12:24:57;8.50;99.90
5560;DHT22;2803;47.916;8.074;2023-12-14T12:27:26;8.10;99.90
5560;DHT22;2803;47.916;8.074;2023-12-14T12:29:52;8.00;99.90
5560;DHT22;2803;47.916;8.074;2023-12-14T12:32:20;7.90;99.90
5560;DHT22;2803;47.916;8.074;2023-12-14T12:34:46;8.00;99.90
5560;DHT22;2803;47.916;8.074;2023-12-14T12:37:15;7.80;99.90
5560;DHT22;2803;47.916;8.074;2023-12-14T12:39:41;7.50;99.90
5560;DHT22;2803;47.916;8.074;2023-12-14T12:42:08;7.50;99.90
5560;DHT22;2803;47.916;8.074;2023-12-14T12:44:34;7.50;99.90
5560;DHT22;2803;47.916;8.074;2023-12-14T12:47:01;7.70;99.90
5560;DHT22;2803;47.916;8.074;2023-12-14T12:49:27;8.10;99.90
5560;DHT22;2803;47.916;8.074;2023-12-14T12:51:54;8.40;99.90
5560;DHT22;2803;47.916;8.074;2023-12-14T12:54:22;8.20;99.90
5560;DHT22;2803;47.916;8.074;2023-12-14T12:56:48;8.00;99.90
5560;DHT22;2803;47.916;8.074;2023-12-14T12:59:15;8.30;99.90
5560;DHT22;2803;47.916;8.074;2023-12-14T13:01:42;8.20;99.90
5560;DHT22;2803;47.916;8.074;2023-12-14T13:04:18;7.70;99.90
5560;DHT22;2803;47.916;8.074;2023-12-14T13:06:45;7.90;99.90
5560;DHT22;2803;47.916;8.074;2023-12-14T13:09:12;8.40;99.90
5560;DHT22;2803;47.916;8.074;2023-12-14T13:11:41;7.90;99.90
5560;DHT22;2803;47.916;8.074;2023-12-14T13:14:08;7.90;99.90
5560;DHT22;2803;47.916;8.074;2023-12-14T13:16:35;8.10;99.90
5560;DHT22;2803;47.916;8.074;2023-12-14T13:19:01;8.10;99.90
5560;DHT22;2803;47.916;8.074;2023-12-14T13:21:29;8.10;99.90
5560;DHT22;2803;47.916;8.074;2023-12-14T13:23:55;8.40;99.90
5560;DHT22;2803;47.916;8.074;2023-12-14T13:26:23;8.50;99.90
5560;DHT22;2803;47.916;8.074;2023-12-14T13:28:51;8.50;99.90
5560;DHT22;2803;47.916;8.074;2023-12-14T13:31:18;8.30;99.90
5560;DHT22;2803;47.916;8.074;2023-12-14T13:33:46;8.50;99.90
5560;DHT22;2803;47.916;8.074;2023-12-14T13:36:13;8.60;99.90
5560;DHT22;2803;47.916;8.074;2023-12-14T13:38:40;8.70;99.90
5560;DHT22;2803;47.916;8.074;2023-12-14T13:41:07;8.70;99.90
5560;DHT22;2803;47.916;8.074;2023-12-14T13:43:34;8.80;99.90
5560;DHT22;2803;47.916;8.074;2023-12-14T13:46:02;9.20;99.90
5560;DHT22;2803;47.916;8.074;2023-12-14T13:48:29;9.40;99.90
5560;DHT22;2803;47.916;8.074;2023-12-14T13:50:56;8.90;99.90
5560;DHT22;2803;47.916;8.074;2023-12-14T13:53:23;8.80;99.90
5560;DHT22;2803;47.916;8.074;2023-12-14T13:55:50;8.80;99.90
5560;DHT22;2803;47.916;8.074;2023-12-14T13:58:16;8.80;99.90
5560;DHT22;2803;47.916;8.074;2023-12-14T14:00:43;8.90;99.90
5560;DHT22;2803;47.916;8.074;2023-12-14T14:03:12;9.20;99.90
5560;DHT22;2803;47.916;8.074;2023-12-14T14:05:38;9.50;99.90
5560;DHT22;2803;47.916;8.074;2023-12-14T14:08:05;9.50;99.90
5560;DHT22;2803;47.916;8.074;2023-12-14T14:10:31;9.40;99.90
5560;DHT22;2803;47.916;8.074;2023-12-14T14:12:58;8.90;99.90
5560;DHT22;2803;47.916;8.074;2023-12-14T14:15:25;9.00;99.90
5560;DHT22;2803;47.916;8.074;2023-12-14T14:17:51;9.00;99.90
5560;DHT22;2803;47.916;8.074;2023-12-14T14:20:21;8.90;99.90
5560;DHT22;2803;47.916;8.074;2023-12-14T14:22:49;8.90;99.90
5560;DHT22;2803;47.916;8.074;2023-12-14T14:25:15;9.10;99.90
5560;DHT22;2803;47.916;8.074;2023-12-14T14:27:43;8.70;99.90
5560;DHT22;2803;47.916;8.074;2023-12-14T14:30:12;8.70;99.90
5560;DHT22;2803;47.916;8.074;2023-12-14T14:32:39;9.00;99.90
5560;DHT22;2803;47.916;8.074;2023-12-14T14:35:06;9.00;99.90
5560;DHT22;2803;47.916;8.074;2023-12-14T14:37:34;9.00;99.90
5560;DHT22;2803;47.916;8.074;2023-12-14T14:40:01;9.50;99.90
5560;DHT22;2803;47.916;8.074;2023-12-14T14:42:29;9.40;99.90
5560;DHT22;2803;47.916;8.074;2023-12-14T14:44:57;9.60;99.90
5560;DHT22;2803;47.916;8.074;2023-12-14T14:47:24;9.30;99.90
5560;DHT22;2803;47.916;8.074;2023-12-14T14:49:51;9.30;99.90
5560;DHT22;2803;47.916;8.074;2023-12-14T14:52:16;9.40;99.90
5560;DHT22;2803;47.916;8.074;2023-12-14T14:54:45;9.40;99.90
5560;DHT22;2803;47.916;8.074;2023-12-14T14:57:11;9.40;99.90
5560;DHT22;2803;47.916;8.074;2023-12-14T14:59:38;9.40;99.90
5560;DHT22;2803;47.916;8.074;2023-12-14T15:02:05;9.10;99.90
5560;DHT22;2803;47.916;8.074;2023-12-14T15:04:31;9.30;99.90
5560;DHT22;2803;47.916;8.074;2023-12-14T15:06:58;9.00;99.90
5560;DHT22;2803;47.916;8.074;2023-12-14T15:09:25;9.00;99.90
5560;DHT22;2803;47.916;8.074;2023-12-14T15:11:53;9.20;99.90
5560;DHT22;2803;47.916;8.074;2023-12-14T15:14:19;9.30;99.90
5560;DHT22;2803;47.916;8.074;2023-12-14T15:16:46;9.20;99.90
5560;DHT22;2803;47.916;8.074;2023-12-14T15:19:13;9.50;99.90
5560;DHT22;2803;47.916;8.074;2023-12-14T15:21:39;9.60;99.90
5560;DHT22;2803;47.916;8.074;2023-12-14T15:24:06;9.50;99.90
5560;DHT22;2803;47.916;8.074;2023-12-14T15:26:33;9.70;99.90
5560;DHT22;2803;47.916;8.074;2023-12-14T15:29:01;9.80;99.90
5560;DHT22;2803;47.916;8.074;2023-12-14T15:31:29;9.60;99.90
5560;DHT22;2803;47.916;8.074;2023-12-14T15:33:55;9.30;99.90
5560;DHT22;2803;47.916;8.074;2023-12-14T15:36:22;9.10;99.90
5560;DHT22;2803;47.916;8.074;2023-12-14T15:38:48;9.50;99.90
5560;DHT22;2803;47.916;8.074;2023-12-14T15:41:15;9.60;99.90
5560;DHT22;2803;47.916;8.074;2023-12-14T15:43:42;9.60;99.90
5560;DHT22;2803;47.916;8.074;2023-12-14T15:46:10;9.30;99.90
5560;DHT22;2803;47.916;8.074;2023-12-14T15:48:37;8.50;99.90
5560;DHT22;2803;47.916;8.074;2023-12-14T15:51:04;8.40;99.90
5560;DHT22;2803;47.916;8.074;2023-12-14T15:53:31;8.10;99.90
5560;DHT22;2803;47.916;8.074;2023-12-14T15:55:57;7.70;99.90
5560;DHT22;2803;47.916;8.074;2023-12-14T15:58:24;7.50;99.90
5560;DHT22;2803;47.916;8.074;2023-12-14T16:00:51;7.40;99.90
5560;DHT22;2803;47.916;8.074;2023-12-14T16:03:19;7.60;99.90
5560;DHT22;2803;47.916;8.074;2023-12-14T16:05:46;7.80;99.90
5560;DHT22;2803;47.916;8.074;2023-12-14T16:08:13;7.40;99.90
5560;DHT22;2803;47.916;8.074;2023-12-14T16:10:39;7.10;99.90
5560;DHT22;2803;47.916;8.074;2023-12-14T16:13:07;7.70;99.90
5560;DHT22;2803;47.916;8.074;2023-12-14T16:15:33;8.10;99.90
5560;DHT22;2803;47.916;8.074;2023-12-14T16:18:00;8.40;99.90